Fort Myers, FL (33967)

3:19 PM EDT on July 24, 2016 (GMT -0400)
Carriedale | | Change Station

Elev 16 ft 26.52 °N, 81.82 °W | Updated 2 minutes ago

Mostly Cloudy
Mostly Cloudy
84.3 °F
Feels Like 95 °F
N
0.0
Wind Variable Wind from South
Gusts 4.0 mph

Today
High -- | Low -- °F
--% Chance of Precip.
Yesterday
High -- | Low -- °F
Precip. -- in
Pressure 30.04 in
Visibility 10.0 miles
Clouds Scattered Clouds 5000 ft
Scattered Clouds 6500 ft
Mostly Cloudy 8000 ft
Heat Index 95 °F
Dew Point 78 °F
Humidity 80%
Rainfall 1.11 in
Snow Depth Not available.
6:48 AM 8:18 PM
Waning Gibbous, 74% visible
METAR KRSW 241853Z 19004KT 10SM VCTS SCT050 SCT065 BKN080 27/21 A3004 RMK AO2 LTG DSNT NE-S RAB1756E29 TSB08E28 SLP170 P0020 T02720211
Pressure 30.04 in
Visibility 10.0 miles
Clouds Scattered Clouds 5000 ft
Scattered Clouds 6500 ft
Mostly Cloudy 8000 ft
Heat Index 95 °F
Dew Point 78 °F
Humidity 80%
Rainfall 1.11 in
Snow Depth Not available.
6:48 AM 8:18 PM
Waning Gibbous, 74% visible
METAR KRSW 241853Z 19004KT 10SM VCTS SCT050 SCT065 BKN080 27/21 A3004 RMK AO2 LTG DSNT NE-S RAB1756E29 TSB08E28 SLP170 P0020 T02720211

10-Day Weather Forecast

Almanac

Astronomy

Jul. 24, 2016 Rise Set
Actual Time
Civil Twilight
Nautical Twilight
Astronomical Twilight
Moon
Length of Visible Light
Length of Day
Tomorrow will be .
, % of the Moon is Illuminated

Today's Extremes

State Highs State Lows

Community

WunderPhotos

Upload Photos

1,927,168 photos uploaded!

WunderBlog® & News

Nearby

Air Quality

  Air Quality AQ Index Pollutant
Not available.

Snow Depth

Station Depth Elevation

Earthquake Activity

City Distance Mag. Time & Date
Minimum magnitude displayed is 2.5.

Coastal Water Temperatures

Place Temperature

Stations

Nearby Weather Stations

Station Location Temp. Windchill Dew Point Humidity Wind Precip. Elev Updated Type
                   

Watches & Warnings

There are currently no watches in effect.